Time;durP1;ratioP1;P1;durP2;ratioP2;P2;SDS_P1;SDS_P2;PMS_P1;PMS_P2;Temp;Humidity;BMP_temperature;BMP_pressure;BME280_temperature;BME280_humidity;BME280_pressure;Samples;Min_cycle;Max_cycle;Signal;HPM_P1;HPM_P2
2021/09/07 00:00:43;;;;;;;;;;;23.90;47.30;;;;;;1577591;75;723;-69
2021/09/07 00:02:45;;;;;;;;;;;23.90;47.20;;;;;;1572183;75;802;-69
2021/09/07 00:04:47;;;;;;;;;;;23.90;47.10;;;;;;1570141;75;683;-68
2021/09/07 00:06:49;;;;;;;;;;;23.90;47.20;;;;;;1559602;75;1189;-69
2021/09/07 00:08:50;;;;;;;;;;;23.90;47.30;;;;;;1561048;75;703;-69
2021/09/07 00:10:52;;;;;;;;;;;23.90;47.30;;;;;;1567840;75;760;-70
2021/09/07 00:12:54;;;;;;;;;;;23.90;47.30;;;;;;1563262;75;1936;-70
2021/09/07 00:14:56;;;;;;;;;;;23.90;47.10;;;;;;1571002;75;720;-70
2021/09/07 00:16:58;;;;;;;;;;;23.90;46.80;;;;;;1575497;75;1060;-70
2021/09/07 00:19:00;;;;;;;;;;;23.80;46.80;;;;;;1565911;75;742;-70
2021/09/07 00:21:02;;;;;;;;;;;23.90;46.90;;;;;;1564205;75;726;-69
2021/09/07 00:23:04;;;;;;;;;;;23.90;47.10;;;;;;1564080;75;770;-70
2021/09/07 00:25:06;;;;;;;;;;;23.90;47.00;;;;;;1566731;75;792;-69
2021/09/07 00:27:08;;;;;;;;;;;23.90;46.80;;;;;;1566511;75;710;-71
2021/09/07 00:29:09;;;;;;;;;;;23.90;46.80;;;;;;1565811;75;679;-70
2021/09/07 00:31:11;;;;;;;;;;;23.90;46.60;;;;;;1568390;75;670;-70
2021/09/07 00:33:13;;;;;;;;;;;23.90;46.50;;;;;;1576561;75;1943;-70
2021/09/07 00:35:15;;;;;;;;;;;23.90;46.40;;;;;;1564799;75;1148;-71
2021/09/07 00:37:17;;;;;;;;;;;23.90;46.50;;;;;;1571291;75;785;-70
2021/09/07 00:39:19;;;;;;;;;;;23.90;46.30;;;;;;1570364;75;798;-71
2021/09/07 00:41:21;;;;;;;;;;;23.90;46.20;;;;;;1566755;75;939;-71
2021/09/07 00:43:22;;;;;;;;;;;23.90;46.20;;;;;;1560637;75;823;-70
2021/09/07 00:45:24;;;;;;;;;;;23.90;46.00;;;;;;1569602;75;1133;-71
2021/09/07 00:47:26;;;;;;;;;;;23.90;45.90;;;;;;1571371;75;753;-70
2021/09/07 00:49:29;;;;;;;;;;;23.80;45.80;;;;;;1562785;75;815;-71
2021/09/07 00:51:31;;;;;;;;;;;23.80;45.70;;;;;;1558820;75;1928;-70
2021/09/07 00:53:33;;;;;;;;;;;23.80;45.60;;;;;;1570298;75;769;-71
2021/09/07 00:55:35;;;;;;;;;;;23.80;45.60;;;;;;1572792;75;1183;-71
2021/09/07 00:57:37;;;;;;;;;;;23.90;45.60;;;;;;1569272;75;726;-72
2021/09/07 00:59:38;;;;;;;;;;;23.90;45.60;;;;;;1566528;75;738;-72
2021/09/07 01:01:40;;;;;;;;;;;23.80;45.50;;;;;;1561630;75;793;-69
2021/09/07 01:03:42;;;;;;;;;;;23.80;45.50;;;;;;1570035;75;812;-67
2021/09/07 01:05:47;;;;;;;;;;;23.80;45.50;;;;;;1570733;73;3040;-72
2021/09/07 01:07:48;;;;;;;;;;;23.80;45.40;;;;;;1560663;74;1696;-74
2021/09/07 01:09:49;;;;;;;;;;;23.80;45.50;;;;;;1558966;74;736;-73
2021/09/07 01:11:51;;;;;;;;;;;23.80;45.40;;;;;;1559600;74;1947;-75
2021/09/07 01:13:53;;;;;;;;;;;23.80;45.30;;;;;;1566615;74;815;-71
2021/09/07 01:15:55;;;;;;;;;;;23.70;45.50;;;;;;1571321;73;1196;-72
2021/09/07 01:17:57;;;;;;;;;;;23.70;45.20;;;;;;1579053;73;795;-72
2021/09/07 01:19:59;;;;;;;;;;;23.80;45.20;;;;;;1575030;73;803;-72
2021/09/07 01:22:01;;;;;;;;;;;23.80;45.30;;;;;;1591332;73;719;-72
2021/09/07 01:24:03;;;;;;;;;;;23.80;45.30;;;;;;1575624;73;911;-72
2021/09/07 01:26:04;;;;;;;;;;;23.80;45.20;;;;;;1576865;73;1114;-73
2021/09/07 01:28:12;;;;;;;;;;;23.70;45.30;;;;;;1582366;73;816;-74
2021/09/07 01:30:10;;;;;;;;;;;23.80;45.20;;;;;;1580138;73;1671;-75
2021/09/07 01:32:12;;;;;;;;;;;23.80;45.20;;;;;;1575686;73;1944;-72
2021/09/07 01:34:22;;;;;;;;;;;23.80;45.30;;;;;;1585304;73;696;-73
2021/09/07 01:36:23;;;;;;;;;;;23.80;45.30;;;;;;1575467;75;1517;-74
2021/09/07 01:38:25;;;;;;;;;;;23.80;45.40;;;;;;1576867;73;760;-77
2021/09/07 01:40:27;;;;;;;;;;;23.80;45.40;;;;;;1585274;73;725;-76
2021/09/07 01:42:29;;;;;;;;;;;23.80;45.40;;;;;;1573387;73;734;-79
2021/09/07 01:44:32;;;;;;;;;;;23.70;45.50;;;;;;1572896;73;780;-73
2021/09/07 01:46:34;;;;;;;;;;;23.70;45.50;;;;;;1573935;73;1136;-73
2021/09/07 01:48:36;;;;;;;;;;;23.70;45.60;;;;;;1573638;73;767;-76
2021/09/07 01:50:38;;;;;;;;;;;23.80;45.40;;;;;;1583123;73;754;-73
2021/09/07 01:52:39;;;;;;;;;;;23.70;45.50;;;;;;1587711;73;1934;-72
2021/09/07 01:54:42;;;;;;;;;;;23.70;45.40;;;;;;1576629;73;741;-73
2021/09/07 01:56:44;;;;;;;;;;;23.80;45.40;;;;;;1578459;73;1089;-68
2021/09/07 01:58:46;;;;;;;;;;;23.80;45.50;;;;;;1578748;73;752;-66
2021/09/07 02:00:48;;;;;;;;;;;23.70;45.50;;;;;;1578111;73;740;-66
2021/09/07 02:02:50;;;;;;;;;;;23.70;45.60;;;;;;1578555;73;782;-66
2021/09/07 02:04:51;;;;;;;;;;;23.70;45.60;;;;;;1581766;73;791;-67
2021/09/07 02:06:53;;;;;;;;;;;23.70;45.60;;;;;;1574499;73;1181;-67
2021/09/07 02:08:55;;;;;;;;;;;23.70;45.70;;;;;;1580036;73;749;-66
2021/09/07 02:10:57;;;;;;;;;;;23.70;45.80;;;;;;1575331;75;878;-67
2021/09/07 02:12:59;;;;;;;;;;;23.70;45.90;;;;;;1584085;73;1955;-67
2021/09/07 02:15:01;;;;;;;;;;;23.70;46.00;;;;;;1586049;73;738;-66
2021/09/07 02:17:03;;;;;;;;;;;23.70;46.00;;;;;;1576685;75;1149;-66
2021/09/07 02:19:05;;;;;;;;;;;23.70;46.00;;;;;;1574625;73;686;-64
2021/09/07 02:21:07;;;;;;;;;;;23.70;46.00;;;;;;1579899;73;694;-67
2021/09/07 02:23:09;;;;;;;;;;;23.70;46.10;;;;;;1584590;73;773;-66
2021/09/07 02:25:11;;;;;;;;;;;23.70;46.20;;;;;;1584432;73;1123;-68
2021/09/07 02:27:13;;;;;;;;;;;23.60;46.10;;;;;;1578732;73;706;-69
2021/09/07 02:29:15;;;;;;;;;;;23.70;46.30;;;;;;1574424;73;768;-68
2021/09/07 02:31:16;;;;;;;;;;;23.70;46.30;;;;;;1560726;73;776;-68
2021/09/07 02:33:18;;;;;;;;;;;23.70;46.30;;;;;;1564493;73;1953;-70
2021/09/07 02:35:20;;;;;;;;;;;23.70;46.40;;;;;;1572534;73;1134;-69
2021/09/07 02:37:22;;;;;;;;;;;23.70;46.50;;;;;;1580869;73;825;-69
2021/09/07 02:39:24;;;;;;;;;;;23.70;46.50;;;;;;1575621;73;721;-69
2021/09/07 02:41:26;;;;;;;;;;;23.70;46.50;;;;;;1574685;73;769;-70
2021/09/07 02:43:28;;;;;;;;;;;23.70;46.50;;;;;;1587493;73;759;-68
2021/09/07 02:45:30;;;;;;;;;;;23.70;46.60;;;;;;1584965;73;1143;-69
2021/09/07 02:47:31;;;;;;;;;;;23.70;46.50;;;;;;1577001;73;818;-68
2021/09/07 02:49:33;;;;;;;;;;;23.70;46.50;;;;;;1577920;73;800;-68
2021/09/07 02:51:35;;;;;;;;;;;23.70;46.40;;;;;;1584085;73;743;-66
2021/09/07 02:53:37;;;;;;;;;;;23.70;46.50;;;;;;1587059;73;1939;-67
2021/09/07 02:55:39;;;;;;;;;;;23.70;46.60;;;;;;1580707;73;1139;-66
2021/09/07 02:57:41;;;;;;;;;;;23.70;46.60;;;;;;1578592;73;802;-66
2021/09/07 02:59:43;;;;;;;;;;;23.60;46.60;;;;;;1580205;73;732;-66
2021/09/07 03:01:45;;;;;;;;;;;23.70;46.70;;;;;;1584047;73;717;-66
2021/09/07 03:03:46;;;;;;;;;;;23.70;46.80;;;;;;1586333;73;713;-65
2021/09/07 03:05:49;;;;;;;;;;;23.70;46.70;;;;;;1584138;73;1144;-66
2021/09/07 03:07:51;;;;;;;;;;;23.60;46.60;;;;;;1582358;73;771;-67
2021/09/07 03:09:53;;;;;;;;;;;23.60;46.60;;;;;;1587232;73;831;-67
2021/09/07 03:11:55;;;;;;;;;;;23.70;46.80;;;;;;1581614;73;734;-67
2021/09/07 03:13:57;;;;;;;;;;;23.60;46.70;;;;;;1587996;73;1922;-66
2021/09/07 03:15:58;;;;;;;;;;;23.70;46.80;;;;;;1582388;73;1127;-65
2021/09/07 03:18:00;;;;;;;;;;;23.60;46.70;;;;;;1576256;73;716;-66
2021/09/07 03:20:02;;;;;;;;;;;23.70;46.80;;;;;;1576232;73;773;-66
2021/09/07 03:22:04;;;;;;;;;;;23.60;46.70;;;;;;1572630;73;816;-66
2021/09/07 03:24:06;;;;;;;;;;;23.60;46.80;;;;;;1581824;73;700;-66
2021/09/07 03:26:09;;;;;;;;;;;23.60;46.70;;;;;;1588461;73;1152;-66
2021/09/07 03:28:11;;;;;;;;;;;23.70;46.90;;;;;;1586970;73;718;-66
2021/09/07 03:30:13;;;;;;;;;;;23.70;46.90;;;;;;1577535;73;876;-65
2021/09/07 03:32:15;;;;;;;;;;;23.70;47.00;;;;;;1573826;73;721;-66
2021/09/07 03:34:17;;;;;;;;;;;23.70;47.00;;;;;;1574147;73;1932;-65
2021/09/07 03:36:18;;;;;;;;;;;23.60;46.90;;;;;;1585558;73;1194;-66
2021/09/07 03:38:20;;;;;;;;;;;23.70;47.10;;;;;;1584629;73;835;-68
2021/09/07 03:40:22;;;;;;;;;;;23.60;46.90;;;;;;1576845;73;809;-65
2021/09/07 03:42:25;;;;;;;;;;;23.70;47.10;;;;;;1586425;73;798;-64
2021/09/07 03:44:27;;;;;;;;;;;23.60;47.10;;;;;;1575588;73;732;-68
2021/09/07 03:46:29;;;;;;;;;;;23.70;47.10;;;;;;1582840;73;1143;-66
2021/09/07 03:48:31;;;;;;;;;;;23.60;47.00;;;;;;1578571;73;794;-67
2021/09/07 03:50:33;;;;;;;;;;;23.70;47.10;;;;;;1582618;73;751;-67
2021/09/07 03:52:34;;;;;;;;;;;23.60;47.00;;;;;;1576878;73;661;-67
2021/09/07 03:54:36;;;;;;;;;;;23.60;47.00;;;;;;1579958;73;1934;-66
2021/09/07 03:56:38;;;;;;;;;;;23.60;47.00;;;;;;1587453;73;1144;-66
2021/09/07 03:58:40;;;;;;;;;;;23.60;47.00;;;;;;1569081;73;729;-66
2021/09/07 04:00:42;;;;;;;;;;;23.70;47.10;;;;;;1583487;73;726;-66
2021/09/07 04:02:44;;;;;;;;;;;23.70;47.10;;;;;;1584356;73;761;-66
2021/09/07 04:04:46;;;;;;;;;;;23.60;47.00;;;;;;1587738;73;802;-67
2021/09/07 04:06:48;;;;;;;;;;;23.70;47.20;;;;;;1582144;73;1152;-66
2021/09/07 04:08:50;;;;;;;;;;;23.70;47.20;;;;;;1578388;73;757;-67
2021/09/07 04:10:52;;;;;;;;;;;23.60;47.10;;;;;;1584487;73;820;-66
2021/09/07 04:12:54;;;;;;;;;;;23.60;47.10;;;;;;1583450;73;1945;-66
2021/09/07 04:14:55;;;;;;;;;;;23.60;47.10;;;;;;1587588;73;765;-66
2021/09/07 04:16:57;;;;;;;;;;;23.60;47.10;;;;;;1586219;73;1131;-66
2021/09/07 04:18:59;;;;;;;;;;;23.60;47.10;;;;;;1585578;73;707;-66
2021/09/07 04:21:01;;;;;;;;;;;23.60;47.00;;;;;;1586789;73;724;-67
2021/09/07 04:23:03;;;;;;;;;;;23.60;47.10;;;;;;1581170;73;780;-66
2021/09/07 04:25:05;;;;;;;;;;;23.70;47.10;;;;;;1587569;73;1132;-65
2021/09/07 04:27:07;;;;;;;;;;;23.60;47.10;;;;;;1579292;75;795;-65
2021/09/07 04:29:09;;;;;;;;;;;23.60;47.10;;;;;;1575381;73;798;-66
2021/09/07 04:31:11;;;;;;;;;;;23.60;47.10;;;;;;1581911;73;790;-65
2021/09/07 04:33:13;;;;;;;;;;;23.60;47.10;;;;;;1579370;73;1923;-66
2021/09/07 04:35:15;;;;;;;;;;;23.60;47.10;;;;;;1585673;73;1170;-66
2021/09/07 04:37:17;;;;;;;;;;;23.60;47.00;;;;;;1567499;73;721;-66
2021/09/07 04:39:19;;;;;;;;;;;23.70;47.10;;;;;;1581509;73;680;-66
2021/09/07 04:41:20;;;;;;;;;;;23.60;47.10;;;;;;1587720;73;827;-67
2021/09/07 04:43:22;;;;;;;;;;;23.60;47.10;;;;;;1569396;73;770;-67
2021/09/07 04:45:24;;;;;;;;;;;23.70;47.10;;;;;;1578659;73;1110;-65
2021/09/07 04:47:26;;;;;;;;;;;23.60;47.10;;;;;;1584009;73;673;-66
2021/09/07 04:49:28;;;;;;;;;;;23.60;47.10;;;;;;1577958;73;859;-67
2021/09/07 04:51:30;;;;;;;;;;;23.60;47.00;;;;;;1577688;73;782;-68
2021/09/07 04:53:32;;;;;;;;;;;23.60;47.10;;;;;;1569175;73;1943;-67
2021/09/07 04:55:34;;;;;;;;;;;23.60;47.10;;;;;;1573381;73;1148;-71
2021/09/07 04:57:35;;;;;;;;;;;23.60;47.10;;;;;;1582440;75;733;-70
2021/09/07 04:59:38;;;;;;;;;;;23.60;47.10;;;;;;1581920;73;790;-68
2021/09/07 05:01:40;;;;;;;;;;;23.60;47.10;;;;;;1577623;73;755;-68
2021/09/07 05:03:42;;;;;;;;;;;23.60;47.10;;;;;;1568226;73;659;-68
2021/09/07 05:05:44;;;;;;;;;;;23.60;47.10;;;;;;1587177;73;1150;-68
2021/09/07 05:07:46;;;;;;;;;;;23.60;47.10;;;;;;1576756;73;802;-69
2021/09/07 05:09:48;;;;;;;;;;;23.60;47.20;;;;;;1580411;73;698;-67
2021/09/07 05:11:50;;;;;;;;;;;23.60;47.10;;;;;;1582269;73;737;-65
2021/09/07 05:13:51;;;;;;;;;;;23.50;47.10;;;;;;1584142;73;1930;-66
2021/09/07 05:15:54;;;;;;;;;;;23.60;47.20;;;;;;1582644;73;1147;-65
2021/09/07 05:17:56;;;;;;;;;;;23.60;47.10;;;;;;1586424;73;838;-67
2021/09/07 05:19:58;;;;;;;;;;;23.50;47.10;;;;;;1587461;73;723;-68
2021/09/07 05:21:59;;;;;;;;;;;23.60;47.10;;;;;;1580770;73;743;-67
2021/09/07 05:24:01;;;;;;;;;;;23.60;47.10;;;;;;1586983;73;690;-69
2021/09/07 05:26:03;;;;;;;;;;;23.60;47.10;;;;;;1585306;73;1140;-68
2021/09/07 05:28:05;;;;;;;;;;;23.60;47.10;;;;;;1579105;73;685;-70
2021/09/07 05:30:08;;;;;;;;;;;23.60;47.10;;;;;;1581987;73;734;-68
2021/09/07 05:32:11;;;;;;;;;;;23.60;47.10;;;;;;1583792;73;747;-67
2021/09/07 05:34:12;;;;;;;;;;;23.50;47.10;;;;;;1586809;73;1921;-66
2021/09/07 05:36:14;;;;;;;;;;;23.60;47.20;;;;;;1584059;73;1169;-65
2021/09/07 05:38:16;;;;;;;;;;;23.60;47.10;;;;;;1569287;73;786;-66
2021/09/07 05:40:18;;;;;;;;;;;23.60;47.20;;;;;;1585484;73;829;-66
2021/09/07 05:42:20;;;;;;;;;;;23.60;47.20;;;;;;1576250;73;666;-65
2021/09/07 05:44:22;;;;;;;;;;;23.50;47.20;;;;;;1584963;73;811;-66
2021/09/07 05:46:24;;;;;;;;;;;23.60;47.30;;;;;;1575033;73;1132;-65
2021/09/07 05:48:26;;;;;;;;;;;23.60;47.30;;;;;;1583327;73;782;-66
2021/09/07 05:50:28;;;;;;;;;;;23.50;47.30;;;;;;1578008;73;782;-66
2021/09/07 05:52:31;;;;;;;;;;;23.60;47.30;;;;;;1578578;73;737;-66
2021/09/07 05:54:32;;;;;;;;;;;23.50;47.30;;;;;;1589254;73;1936;-65
2021/09/07 05:56:34;;;;;;;;;;;23.50;47.30;;;;;;1582235;73;1090;-66
2021/09/07 05:58:37;;;;;;;;;;;23.60;47.40;;;;;;1587571;73;798;-67
2021/09/07 06:00:39;;;;;;;;;;;23.60;47.60;;;;;;1581898;73;683;-68
2021/09/07 06:02:41;;;;;;;;;;;23.50;47.60;;;;;;1583116;73;747;-67
2021/09/07 06:04:43;;;;;;;;;;;23.60;47.60;;;;;;1547426;75;674;-67
2021/09/07 06:06:45;;;;;;;;;;;23.50;47.60;;;;;;1548222;75;1122;-66
2021/09/07 06:08:47;;;;;;;;;;;23.60;47.70;;;;;;1550675;75;777;-66
2021/09/07 06:10:49;;;;;;;;;;;23.50;47.70;;;;;;1548362;75;708;-65
2021/09/07 06:12:51;;;;;;;;;;;23.60;47.80;;;;;;1548256;75;948;-67
2021/09/07 06:14:52;;;;;;;;;;;23.60;47.80;;;;;;1551418;75;1901;-67
2021/09/07 06:16:56;;;;;;;;;;;23.60;47.80;;;;;;1520006;76;1202;-68
2021/09/07 06:18:58;;;;;;;;;;;23.60;47.90;;;;;;1552082;75;782;-66
2021/09/07 06:20:59;;;;;;;;;;;23.60;47.90;;;;;;1547850;75;789;-67
2021/09/07 06:23:01;;;;;;;;;;;23.60;48.00;;;;;;1547094;75;738;-67
2021/09/07 06:25:04;;;;;;;;;;;23.60;48.00;;;;;;1544799;75;794;-67
2021/09/07 06:27:06;;;;;;;;;;;23.60;48.00;;;;;;1552329;75;819;-65
2021/09/07 06:29:08;;;;;;;;;;;23.60;47.90;;;;;;1548674;75;733;-67
2021/09/07 06:31:10;;;;;;;;;;;23.60;48.10;;;;;;1550420;75;695;-67
2021/09/07 06:33:12;;;;;;;;;;;23.70;48.30;;;;;;1547875;75;667;-73
2021/09/07 06:35:14;;;;;;;;;;;23.60;48.30;;;;;;1535378;76;1932;-72
2021/09/07 06:37:16;;;;;;;;;;;23.70;48.30;;;;;;1515693;76;803;-73
2021/09/07 06:39:17;;;;;;;;;;;23.60;47.80;;;;;;1552875;75;757;-71
2021/09/07 06:41:19;;;;;;;;;;;23.60;47.70;;;;;;1523711;76;753;-68
2021/09/07 06:43:21;;;;;;;;;;;23.60;47.60;;;;;;1538021;75;799;-71
2021/09/07 06:45:23;;;;;;;;;;;23.60;47.30;;;;;;1545703;75;1143;-71
2021/09/07 06:47:25;;;;;;;;;;;23.60;47.40;;;;;;1550816;75;726;-71
2021/09/07 06:49:27;;;;;;;;;;;23.60;47.40;;;;;;1520920;76;638;-71
2021/09/07 06:51:29;;;;;;;;;;;23.60;47.40;;;;;;1552705;75;784;-70
2021/09/07 06:53:31;;;;;;;;;;;23.50;47.40;;;;;;1524272;76;748;-71
2021/09/07 06:55:33;;;;;;;;;;;23.60;47.40;;;;;;1550360;75;1931;-73
2021/09/07 06:57:35;;;;;;;;;;;23.60;47.30;;;;;;1549320;75;731;-73
2021/09/07 06:59:37;;;;;;;;;;;23.50;47.30;;;;;;1545323;75;750;-72
2021/09/07 07:01:38;;;;;;;;;;;23.50;47.10;;;;;;1548851;76;816;-71
2021/09/07 07:03:40;;;;;;;;;;;23.60;46.90;;;;;;1550314;75;734;-71
2021/09/07 07:05:42;;;;;;;;;;;23.60;46.70;;;;;;1545634;72;223362;-56
2021/09/07 07:07:44;;;;;;;;;;;23.60;46.50;;;;;;1588500;73;768;-57
2021/09/07 07:09:46;;;;;;;;;;;23.50;46.40;;;;;;1596697;73;668;-55
2021/09/07 07:11:48;;;;;;;;;;;23.50;46.40;;;;;;1568657;74;718;-56
2021/09/07 07:13:50;;;;;;;;;;;23.50;46.40;;;;;;1557333;75;1196;-55
2021/09/07 07:15:52;;;;;;;;;;;23.50;46.30;;;;;;1567603;75;1902;-55
2021/09/07 07:17:54;;;;;;;;;;;23.50;46.30;;;;;;1592042;73;699;-57
2021/09/07 07:19:55;;;;;;;;;;;23.50;46.30;;;;;;1590978;73;722;-58
2021/09/07 07:21:57;;;;;;;;;;;23.50;46.30;;;;;;1584398;73;830;-57
2021/09/07 07:23:59;;;;;;;;;;;23.40;46.20;;;;;;1600373;72;1155;-58
2021/09/07 07:26:01;;;;;;;;;;;23.50;46.20;;;;;;1566926;74;916;-56
2021/09/07 07:28:03;;;;;;;;;;;23.50;46.20;;;;;;1588272;73;692;-56
2021/09/07 07:30:06;;;;;;;;;;;23.50;46.20;;;;;;1577594;73;757;-56
2021/09/07 07:32:08;;;;;;;;;;;23.40;46.20;;;;;;1607006;72;882;-58
2021/09/07 07:34:10;;;;;;;;;;;23.50;46.30;;;;;;1601968;72;1923;-56
2021/09/07 07:36:11;;;;;;;;;;;23.50;46.30;;;;;;1604723;72;659;-56
2021/09/07 07:38:13;;;;;;;;;;;23.50;46.30;;;;;;1610387;72;763;-55
2021/09/07 07:40:15;;;;;;;;;;;23.40;46.20;;;;;;1602359;72;788;-56
2021/09/07 07:42:17;;;;;;;;;;;23.50;46.30;;;;;;1607649;72;707;-58
2021/09/07 07:44:19;;;;;;;;;;;23.40;46.30;;;;;;1604610;72;1176;-56
2021/09/07 07:46:21;;;;;;;;;;;23.50;46.50;;;;;;1610868;72;881;-57
2021/09/07 07:48:23;;;;;;;;;;;23.40;46.30;;;;;;1605112;72;664;-56
2021/09/07 07:50:25;;;;;;;;;;;23.40;46.20;;;;;;1608586;72;766;-56
2021/09/07 07:52:27;;;;;;;;;;;23.40;46.30;;;;;;1596999;72;891;-55
2021/09/07 07:54:29;;;;;;;;;;;23.40;46.40;;;;;;1595198;72;1950;-56
2021/09/07 07:56:30;;;;;;;;;;;23.50;46.60;;;;;;1606914;72;713;-56
2021/09/07 07:58:32;;;;;;;;;;;23.50;46.60;;;;;;1596184;72;769;-56
2021/09/07 08:00:34;;;;;;;;;;;23.40;46.50;;;;;;1605501;72;699;-57
2021/09/07 08:02:36;;;;;;;;;;;23.50;46.50;;;;;;1608575;72;724;-58
2021/09/07 08:04:39;;;;;;;;;;;23.40;46.50;;;;;;1604948;72;1116;-56
2021/09/07 08:06:41;;;;;;;;;;;23.40;46.50;;;;;;1604564;72;744;-56
2021/09/07 08:08:43;;;;;;;;;;;23.50;46.80;;;;;;1604743;72;765;-56
2021/09/07 08:10:45;;;;;;;;;;;23.40;46.60;;;;;;1599331;72;720;-57
2021/09/07 08:12:46;;;;;;;;;;;23.30;46.60;;;;;;1612402;73;748;-56
2021/09/07 08:14:48;;;;;;;;;;;23.40;46.70;;;;;;1609076;73;1948;-56
2021/09/07 08:16:50;;;;;;;;;;;23.40;46.60;;;;;;1618452;72;672;-56
2021/09/07 08:18:52;;;;;;;;;;;23.40;46.60;;;;;;1599767;72;704;-56
2021/09/07 08:20:54;;;;;;;;;;;23.40;46.60;;;;;;1608126;72;707;-56
2021/09/07 08:22:56;;;;;;;;;;;23.50;46.80;;;;;;1610726;72;1091;-56
2021/09/07 08:24:58;;;;;;;;;;;23.50;46.90;;;;;;1611208;72;731;-56
2021/09/07 08:27:00;;;;;;;;;;;23.40;46.80;;;;;;1593788;72;717;-57
2021/09/07 08:29:02;;;;;;;;;;;23.40;46.80;;;;;;1611239;72;731;-56
2021/09/07 08:31:03;;;;;;;;;;;23.40;46.80;;;;;;1594798;72;711;-56
2021/09/07 08:33:07;;;;;;;;;;;23.40;46.80;;;;;;1610525;72;1138;-56
2021/09/07 08:35:09;;;;;;;;;;;23.50;47.00;;;;;;1605674;72;1917;-55
2021/09/07 08:37:11;;;;;;;;;;;23.50;47.00;;;;;;1607213;72;718;-56
2021/09/07 08:39:15;;;;;;;;;;;23.40;46.80;;;;;;1614166;72;725;-56
2021/09/07 08:41:17;;;;;;;;;;;23.50;47.00;;;;;;1611808;72;1812;-56
2021/09/07 08:43:23;;;;;;;;;;;23.40;46.80;;;;;;1621956;72;1149;-57
2021/09/07 08:45:23;;;;;;;;;;;23.50;47.00;;;;;;1606387;72;1086;-56
2021/09/07 08:47:25;;;;;;;;;;;23.50;46.90;;;;;;1611396;72;713;-57
2021/09/07 08:49:26;;;;;;;;;;;23.50;46.90;;;;;;1607210;72;787;-57
2021/09/07 08:51:28;;;;;;;;;;;23.60;47.10;;;;;;1620994;72;626;-56
2021/09/07 08:53:30;;;;;;;;;;;23.60;47.10;;;;;;1605175;72;1111;-56
2021/09/07 08:55:32;;;;;;;;;;;23.60;46.90;;;;;;1617814;72;1937;-56
2021/09/07 08:57:34;;;;;;;;;;;23.60;46.80;;;;;;1602326;72;706;-57
2021/09/07 08:59:36;;;;;;;;;;;23.60;46.90;;;;;;1611648;72;733;-57
2021/09/07 09:01:39;;;;;;;;;;;23.60;46.90;;;;;;1612959;72;767;-56
2021/09/07 09:03:42;;;;;;;;;;;23.70;47.00;;;;;;1609557;72;1115;-56
2021/09/07 09:05:44;;;;;;;;;;;23.70;47.00;;;;;;1608132;72;850;-57
2021/09/07 09:07:46;;;;;;;;;;;23.80;46.70;;;;;;1612311;72;798;-57
2021/09/07 09:09:52;;;;;;;;;;;23.70;46.80;;;;;;1604925;72;779;-56
2021/09/07 09:11:55;;;;;;;;;;;23.80;46.80;;;;;;1610262;72;1421;-55
2021/09/07 09:13:57;;;;;;;;;;;23.90;46.70;;;;;;1614399;72;1108;-57
2021/09/07 09:16:06;;;;;;;;;;;23.80;46.50;;;;;;1626895;72;1895;-55
2021/09/07 09:18:08;;;;;;;;;;;23.90;46.40;;;;;;1607265;72;652;-55
2021/09/07 09:20:16;;;;;;;;;;;23.80;46.20;;;;;;1616041;72;709;-56
2021/09/07 09:22:17;;;;;;;;;;;23.80;46.40;;;;;;1606928;72;1585;-56
2021/09/07 09:24:19;;;;;;;;;;;23.90;46.40;;;;;;1600191;72;1120;-56
2021/09/07 09:26:21;;;;;;;;;;;23.80;46.10;;;;;;1617215;72;680;-56
2021/09/07 09:28:23;;;;;;;;;;;23.70;46.40;;;;;;1614523;72;786;-56
2021/09/07 09:30:25;;;;;;;;;;;23.70;46.50;;;;;;1612975;72;768;-56
2021/09/07 09:32:27;;;;;;;;;;;23.80;46.40;;;;;;1615470;72;665;-56
2021/09/07 09:34:29;;;;;;;;;;;23.90;46.40;;;;;;1633333;72;1156;-56
2021/09/07 09:36:31;;;;;;;;;;;24.00;46.20;;;;;;1604998;72;1919;-56
2021/09/07 09:38:34;;;;;;;;;;;24.00;46.10;;;;;;1607908;72;628;-57
2021/09/07 09:40:36;;;;;;;;;;;23.90;46.30;;;;;;1609255;72;777;-56
2021/09/07 09:42:37;;;;;;;;;;;23.90;46.40;;;;;;1611364;72;704;-56
2021/09/07 09:44:39;;;;;;;;;;;23.90;46.40;;;;;;1611832;72;1136;-56
2021/09/07 09:46:41;;;;;;;;;;;23.90;46.50;;;;;;1604818;72;715;-58
2021/09/07 09:48:43;;;;;;;;;;;23.90;46.30;;;;;;1624943;72;771;-58
2021/09/07 09:50:45;;;;;;;;;;;23.80;46.10;;;;;;1605996;72;656;-58
2021/09/07 09:52:47;;;;;;;;;;;23.80;46.00;;;;;;1625338;72;926;-57
2021/09/07 09:54:49;;;;;;;;;;;23.90;46.10;;;;;;1612382;72;740;-57
2021/09/07 09:56:51;;;;;;;;;;;23.80;46.00;;;;;;1605915;72;755;-57
2021/09/07 09:58:53;;;;;;;;;;;23.80;46.00;;;;;;1624250;72;713;-59
2021/09/07 10:00:55;;;;;;;;;;;23.90;46.20;;;;;;1604551;72;729;-58
2021/09/07 10:02:59;;;;;;;;;;;24.00;45.20;;;;;;1618251;72;1080;-57
2021/09/07 10:05:00;;;;;;;;;;;23.80;45.30;;;;;;1600695;72;1626;-58
2021/09/07 10:07:02;;;;;;;;;;;23.90;44.80;;;;;;1608747;72;711;-57
2021/09/07 10:09:04;;;;;;;;;;;23.90;45.20;;;;;;1615957;72;791;-57
2021/09/07 10:11:08;;;;;;;;;;;23.90;44.50;;;;;;1619124;72;814;-57
2021/09/07 10:13:10;;;;;;;;;;;23.80;45.20;;;;;;1604382;72;1711;-55
2021/09/07 10:16:02;;;;;;;;;;;23.80;45.00;;;;;;1609993;72;1909;-57
2021/09/07 10:17:35;;;;;;;;;;;23.70;45.00;;;;;;1574812;72;1753;-56
2021/09/07 10:19:43;;;;;;;;;;;23.70;45.00;;;;;;1604373;72;1589;-57
2021/09/07 10:26:02;;;;;;;;;;;23.80;44.70;;;;;;1607228;72;716;-56
2021/09/07 10:28:05;;;;;;;;;;;23.90;43.90;;;;;;1606439;72;727;-56
2021/09/07 10:30:07;;;;;;;;;;;23.70;43.90;;;;;;1601694;72;696;-57
2021/09/07 10:32:21;;;;;;;;;;;23.70;44.10;;;;;;1611040;72;775;-57
2021/09/07 10:34:31;;;;;;;;;;;23.90;44.70;;;;;;1609581;72;1108;-56
2021/09/07 10:36:32;;;;;;;;;;;23.80;43.30;;;;;;1612539;72;1916;-58
2021/09/07 10:38:37;;;;;;;;;;;23.70;43.40;;;;;;1598919;72;750;-57
2021/09/07 10:40:40;;;;;;;;;;;23.70;43.40;;;;;;1615629;72;743;-56
2021/09/07 10:42:52;;;;;;;;;;;23.80;43.30;;;;;;1614834;72;671;-57
2021/09/07 10:44:59;;;;;;;;;;;23.70;43.60;;;;;;1612771;72;1539;-57
2021/09/07 10:47:09;;;;;;;;;;;23.80;43.90;;;;;;1594753;72;797;-57
2021/09/07 10:49:15;;;;;;;;;;;23.80;43.10;;;;;;1612124;72;758;-57
2021/09/07 10:51:18;;;;;;;;;;;23.60;42.60;;;;;;1603963;72;665;-57
2021/09/07 10:53:23;;;;;;;;;;;23.80;43.50;;;;;;1609982;72;1101;-56
2021/09/07 10:55:25;;;;;;;;;;;23.70;42.90;;;;;;1592604;72;1910;-58
2021/09/07 10:57:34;;;;;;;;;;;23.80;43.50;;;;;;1597328;72;764;-56
2021/09/07 10:59:54;;;;;;;;;;;23.90;43.60;;;;;;1604621;72;754;-57
2021/09/07 11:01:54;;;;;;;;;;;23.90;43.40;;;;;;1599769;72;1052;-57
2021/09/07 11:04:13;;;;;;;;;;;23.90;42.60;;;;;;1588526;74;1177;-57
2021/09/07 11:06:33;;;;;;;;;;;23.70;42.80;;;;;;1549899;75;674;-57
2021/09/07 11:08:36;;;;;;;;;;;23.70;43.20;;;;;;1551694;75;801;-58
2021/09/07 11:10:39;;;;;;;;;;;23.80;43.10;;;;;;1597551;72;670;-58
2021/09/07 11:12:49;;;;;;;;;;;23.80;43.20;;;;;;1605900;72;729;-58
2021/09/07 11:15:01;;;;;;;;;;;23.80;43.40;;;;;;1613098;72;1507;-58
2021/09/07 11:17:03;;;;;;;;;;;23.70;43.40;;;;;;1578070;72;1925;-58
2021/09/07 11:19:05;;;;;;;;;;;23.70;43.00;;;;;;1618448;72;736;-57
2021/09/07 11:21:07;;;;;;;;;;;23.70;43.30;;;;;;1612475;72;1105;-58
2021/09/07 11:23:16;;;;;;;;;;;23.70;42.80;;;;;;1613684;72;1127;-58
2021/09/07 11:25:18;;;;;;;;;;;23.70;42.30;;;;;;1610689;73;705;-57
2021/09/07 11:27:20;;;;;;;;;;;23.70;42.20;;;;;;1594939;72;740;-58
2021/09/07 11:29:24;;;;;;;;;;;23.70;42.90;;;;;;1612064;72;771;-57
2021/09/07 11:31:25;;;;;;;;;;;23.70;42.70;;;;;;1607193;72;1817;-58
2021/09/07 11:33:30;;;;;;;;;;;23.80;42.30;;;;;;1603586;72;1138;-59
2021/09/07 11:35:33;;;;;;;;;;;23.80;42.80;;;;;;1610339;72;1931;-59
2021/09/07 11:37:35;;;;;;;;;;;23.90;42.70;;;;;;1606576;72;713;-58
2021/09/07 11:39:36;;;;;;;;;;;23.80;42.30;;;;;;1602163;72;778;-57
2021/09/07 11:41:38;;;;;;;;;;;23.80;42.60;;;;;;1602122;72;721;-58
2021/09/07 11:43:44;;;;;;;;;;;23.80;42.10;;;;;;1613922;72;1109;-57
2021/09/07 11:45:46;;;;;;;;;;;23.70;42.60;;;;;;1613247;72;780;-59
2021/09/07 11:47:48;;;;;;;;;;;23.70;42.50;;;;;;1606751;72;710;-58
2021/09/07 11:49:50;;;;;;;;;;;23.70;42.60;;;;;;1613507;72;844;-57
2021/09/07 11:51:53;;;;;;;;;;;23.70;42.50;;;;;;1611696;72;677;-57
2021/09/07 11:53:59;;;;;;;;;;;23.80;42.60;;;;;;1612784;72;1162;-58
2021/09/07 11:56:01;;;;;;;;;;;23.70;41.60;;;;;;1608911;72;1922;-59
2021/09/07 11:58:03;;;;;;;;;;;23.70;41.30;;;;;;1617361;72;1070;-58
2021/09/07 12:00:05;;;;;;;;;;;23.70;42.00;;;;;;1606171;72;703;-59
2021/09/07 12:02:08;;;;;;;;;;;23.70;42.10;;;;;;1613506;72;702;-58
2021/09/07 12:04:14;;;;;;;;;;;23.70;41.70;;;;;;1611907;72;1104;-57
2021/09/07 12:06:36;;;;;;;;;;;23.80;41.00;;;;;;1618248;72;1565;-57
2021/09/07 12:08:34;;;;;;;;;;;23.70;41.20;;;;;;1607698;72;1123;-58
2021/09/07 12:10:36;;;;;;;;;;;23.70;41.40;;;;;;1611368;72;707;-58
2021/09/07 12:12:38;;;;;;;;;;;23.70;40.60;;;;;;1603375;72;699;-58
2021/09/07 12:14:40;;;;;;;;;;;23.70;41.40;;;;;;1614109;72;1051;-58